createdAt,value
2023-05-10T00:02:47.825Z,35.85
2023-05-10T00:05:51.565Z,37.50
2023-05-10T00:08:55.472Z,36.63
2023-05-10T00:11:59.995Z,36.20
2023-05-10T00:15:04.788Z,35.33
2023-05-10T00:18:08.535Z,35.58
2023-05-10T00:21:12.191Z,35.20
2023-05-10T00:24:16.242Z,34.95
2023-05-10T00:27:19.408Z,35.42
2023-05-10T00:30:23.595Z,32.83
2023-05-10T00:33:27.248Z,33.67
2023-05-10T00:36:31.288Z,32.80
2023-05-10T00:39:34.983Z,31.35
2023-05-10T00:42:39.073Z,28.55
2023-05-10T00:45:43.674Z,32.15
2023-05-10T00:48:48.577Z,31.73
2023-05-10T00:51:52.368Z,31.48
2023-05-10T00:54:57.619Z,32.70
2023-05-10T00:58:01.361Z,31.95
2023-05-10T01:01:04.995Z,31.73
2023-05-10T01:04:08.753Z,31.08
2023-05-10T01:07:12.998Z,31.38
2023-05-10T01:10:16.999Z,30.60
2023-05-10T01:13:37.228Z,32.60
2023-05-10T01:16:42.308Z,31.10
2023-05-10T01:19:46.480Z,32.50
2023-05-10T01:23:24.085Z,38.22
2023-05-10T01:26:33.793Z,36.22
2023-05-10T01:30:17.308Z,35.63
2023-05-10T01:33:39.627Z,39.00
2023-05-10T01:36:57.038Z,36.65
2023-05-10T01:40:49.453Z,35.17
2023-05-10T01:44:07.178Z,37.63
2023-05-10T01:47:21.907Z,38.50
2023-05-10T01:50:30.975Z,37.72
2023-05-10T01:53:37.341Z,38.28
2023-05-10T01:56:42.650Z,38.25
2023-05-10T01:59:51.239Z,37.25
2023-05-10T02:02:56.016Z,37.65
2023-05-10T02:06:01.029Z,37.22
2023-05-10T02:09:05.542Z,38.83
2023-05-10T02:12:09.873Z,35.03
2023-05-10T02:15:17.128Z,36.45
2023-05-10T02:21:24.513Z,35.92
2023-05-10T02:24:28.998Z,35.33
2023-05-10T02:27:33.211Z,35.78
2023-05-10T02:30:36.661Z,31.95
2023-05-10T02:33:42.526Z,31.20
2023-05-10T02:36:46.605Z,27.65
2023-05-10T02:39:52.238Z,27.08
2023-05-10T02:42:58.072Z,28.42
2023-05-10T02:46:02.233Z,25.05
2023-05-10T02:49:05.389Z,24.92
2023-05-10T02:52:10.684Z,25.00
2023-05-10T02:55:18.792Z,25.63
2023-05-10T02:58:22.430Z,26.13
2023-05-10T03:01:26.088Z,26.23
2023-05-10T03:04:29.171Z,23.63
2023-05-10T03:07:35.868Z,25.38
2023-05-10T03:10:52.201Z,25.17
2023-05-10T03:14:01.935Z,24.33
2023-05-10T03:17:12.328Z,24.65
2023-05-10T03:20:28.032Z,26.27
2023-05-10T03:23:52.224Z,25.02
2023-05-10T03:27:00.702Z,24.95
2023-05-10T03:30:06.703Z,23.48
2023-05-10T03:33:10.574Z,22.90
2023-05-10T03:36:17.773Z,21.15
2023-05-10T03:39:23.113Z,20.70
2023-05-10T03:42:31.066Z,20.45
2023-05-10T03:45:34.844Z,20.63
2023-05-10T03:48:38.493Z,21.83
2023-05-10T03:51:42.379Z,22.08
2023-05-10T03:54:45.533Z,21.42
2023-05-10T03:57:51.052Z,22.05
2023-05-10T04:00:54.682Z,22.03
2023-05-10T04:03:57.920Z,22.42
2023-05-10T04:07:01.142Z,22.10
2023-05-10T04:10:05.304Z,20.15
2023-05-10T04:13:09.083Z,20.63
2023-05-10T04:16:12.677Z,21.20
2023-05-10T04:19:16.138Z,20.58
2023-05-10T04:22:19.483Z,20.20
2023-05-10T04:25:22.565Z,20.63
2023-05-10T04:28:25.588Z,18.48
2023-05-10T04:31:29.491Z,18.77
2023-05-10T04:34:33.153Z,17.63
2023-05-10T04:37:36.401Z,17.58
2023-05-10T04:40:40.233Z,14.07
2023-05-10T04:43:43.233Z,14.98
2023-05-10T04:46:46.865Z,14.18
2023-05-10T04:49:50.408Z,13.90
2023-05-10T04:52:54.167Z,13.15
2023-05-10T04:55:57.605Z,14.00
2023-05-10T04:59:00.845Z,14.40
2023-05-10T05:02:04.085Z,13.23
2023-05-10T05:05:08.132Z,13.77
2023-05-10T05:08:11.070Z,12.27
2023-05-10T05:11:14.203Z,11.38
2023-05-10T05:14:17.253Z,9.65
2023-05-10T05:17:21.017Z,10.45
2023-05-10T05:20:24.222Z,8.25
2023-05-10T05:23:28.141Z,9.05
2023-05-10T05:26:31.219Z,8.80
2023-05-10T05:29:34.596Z,8.70
2023-05-10T05:32:38.275Z,8.10
2023-05-10T05:35:42.302Z,8.45
2023-05-10T05:38:46.680Z,8.07
2023-05-10T05:41:50.874Z,8.48
2023-05-10T05:44:54.352Z,7.93
2023-05-10T05:47:58.443Z,7.85
2023-05-10T05:51:02.390Z,7.95
2023-05-10T05:54:07.066Z,7.00
2023-05-10T05:57:10.699Z,7.15
2023-05-10T06:00:15.448Z,7.57
2023-05-10T06:03:20.345Z,6.47
2023-05-10T06:06:24.618Z,6.05
2023-05-10T06:09:28.749Z,6.25
2023-05-10T06:12:32.952Z,6.30
2023-05-10T06:15:36.764Z,5.95
2023-05-10T06:18:40.863Z,5.40
2023-05-10T06:21:44.699Z,6.10
2023-05-10T06:24:48.541Z,6.22
2023-05-10T06:27:53.878Z,5.60
2023-05-10T06:30:58.458Z,4.97
2023-05-10T06:34:02.061Z,6.75
2023-05-10T06:37:05.953Z,6.72
2023-05-10T06:40:10.806Z,6.72
2023-05-10T06:43:14.157Z,6.03
2023-05-10T06:46:17.873Z,6.05
2023-05-10T06:49:21.835Z,5.43
2023-05-10T06:52:25.270Z,5.80
2023-05-10T06:55:29.014Z,6.32
2023-05-10T06:58:34.110Z,6.55
2023-05-10T07:01:38.217Z,7.22
2023-05-10T07:04:41.755Z,7.03
2023-05-10T07:07:45.764Z,7.57
2023-05-10T07:10:49.636Z,8.27
2023-05-10T07:13:53.654Z,7.30
2023-05-10T07:16:57.415Z,7.32
2023-05-10T07:20:01.807Z,8.10
2023-05-10T07:23:05.505Z,7.35
2023-05-10T07:26:09.773Z,7.63
2023-05-10T07:29:13.577Z,8.32
2023-05-10T07:32:17.549Z,7.78
2023-05-10T07:35:21.179Z,7.53
2023-05-10T07:38:25.310Z,7.45
2023-05-10T07:41:28.908Z,6.40
2023-05-10T07:44:32.898Z,7.57
2023-05-10T07:47:36.620Z,7.93
2023-05-10T07:50:40.234Z,8.32
2023-05-10T07:53:43.894Z,8.02
2023-05-10T07:56:48.816Z,8.73
2023-05-10T07:59:52.436Z,7.30
2023-05-10T08:02:56.538Z,8.30
2023-05-10T08:06:01.315Z,7.93
2023-05-10T08:09:05.154Z,8.15
2023-05-10T08:12:08.713Z,8.05
2023-05-10T08:15:12.903Z,8.85
2023-05-10T08:18:16.514Z,9.32
2023-05-10T08:21:20.586Z,9.45
2023-05-10T08:24:25.776Z,8.60
2023-05-10T08:27:29.760Z,8.32
2023-05-10T08:30:33.625Z,8.10
2023-05-10T08:33:37.648Z,8.02
2023-05-10T08:36:41.395Z,8.30
2023-05-10T08:39:45.373Z,8.15
2023-05-10T08:43:10.132Z,9.05
2023-05-10T08:46:17.696Z,8.55
2023-05-10T08:49:22.053Z,8.65
2023-05-10T08:52:28.672Z,8.88
2023-05-10T08:55:34.504Z,7.45
2023-05-10T08:58:39.463Z,7.57
2023-05-10T09:01:44.360Z,8.50
2023-05-10T09:04:47.883Z,7.95
2023-05-10T09:07:51.194Z,8.18
2023-05-10T09:10:57.317Z,7.82
2023-05-10T09:14:00.368Z,8.30
2023-05-10T09:17:04.309Z,7.70
2023-05-10T09:20:08.615Z,8.35
2023-05-10T09:23:12.733Z,7.88
2023-05-10T09:26:16.289Z,9.35
2023-05-10T09:29:19.397Z,9.15
2023-05-10T09:32:22.907Z,8.45
2023-05-10T09:35:29.881Z,6.80
2023-05-10T09:38:50.184Z,6.57
2023-05-10T09:41:54.812Z,5.90
2023-05-10T09:45:08.472Z,4.72
2023-05-10T09:48:12.665Z,3.78
2023-05-10T09:51:26.103Z,4.28
2023-05-10T09:54:29.072Z,5.43
2023-05-10T09:57:34.631Z,5.43
2023-05-10T10:00:41.047Z,4.85
2023-05-10T10:03:45.119Z,4.72
2023-05-10T10:07:00.058Z,5.32
2023-05-10T10:10:04.283Z,4.70
2023-05-10T10:13:08.824Z,5.22
2023-05-10T10:16:12.017Z,4.35
2023-05-10T10:19:16.913Z,4.22
2023-05-10T10:22:19.948Z,4.10
2023-05-10T10:25:24.735Z,5.15
2023-05-10T10:28:54.037Z,4.38
2023-05-10T10:32:10.623Z,5.18
2023-05-10T10:35:13.763Z,3.92
2023-05-10T10:38:16.955Z,4.32
2023-05-10T10:41:37.462Z,4.85
2023-05-10T10:44:51.599Z,4.82
2023-05-10T10:48:24.275Z,4.78
2023-05-10T10:51:31.193Z,5.13
2023-05-10T10:54:34.526Z,4.05
2023-05-10T10:58:06.161Z,5.07
2023-05-10T11:01:20.068Z,5.18
2023-05-10T11:04:24.009Z,4.47
2023-05-10T11:07:28.421Z,5.07
2023-05-10T11:10:31.939Z,4.70
2023-05-10T11:13:40.607Z,4.47
2023-05-10T11:16:46.580Z,4.10
2023-05-10T11:20:09.201Z,4.03
2023-05-10T11:23:17.422Z,5.03
2023-05-10T11:26:24.622Z,5.10
2023-05-10T11:29:28.532Z,5.82
2023-05-10T11:32:32.023Z,6.22
2023-05-10T11:35:43.640Z,5.65
2023-05-10T11:38:47.860Z,6.20
2023-05-10T11:41:51.570Z,4.55
2023-05-10T11:44:55.278Z,5.50
2023-05-10T11:47:59.696Z,7.05
2023-05-10T11:51:03.676Z,8.63
2023-05-10T11:54:12.585Z,6.68
2023-05-10T11:57:16.606Z,6.95
2023-05-10T12:00:20.471Z,6.38
2023-05-10T12:06:43.135Z,6.45
2023-05-10T12:24:01.545Z,7.07
2023-05-10T12:40:10.613Z,6.15
2023-05-10T12:50:30.269Z,6.85
2023-05-10T12:53:35.561Z,7.45
2023-05-10T12:56:50.668Z,7.68
2023-05-10T12:59:54.613Z,7.95
2023-05-10T13:06:37.909Z,8.00
2023-05-10T13:16:36.836Z,8.98
2023-05-10T13:19:41.085Z,8.77
2023-05-10T13:22:46.156Z,10.43
2023-05-10T13:29:10.920Z,10.50
2023-05-10T13:40:46.893Z,9.27
2023-05-10T14:07:30.902Z,5.72
2023-05-10T14:26:30.611Z,4.95
2023-05-10T14:36:15.337Z,3.65
2023-05-10T15:13:09.313Z,4.70
2023-05-10T15:19:37.111Z,5.47
2023-05-10T15:22:44.728Z,5.22
2023-05-10T15:32:32.711Z,3.80
2023-05-10T15:39:00.379Z,4.70
2023-05-10T15:52:03.153Z,4.78
2023-05-10T16:05:12.237Z,4.05
2023-05-10T16:14:58.072Z,4.10
2023-05-10T16:18:05.494Z,4.22
2023-05-10T16:21:15.144Z,3.75
2023-05-10T16:24:21.916Z,3.78
2023-05-10T16:27:30.928Z,3.85
2023-05-10T16:30:38.968Z,4.00
2023-05-10T16:33:46.420Z,3.60
2023-05-10T16:36:56.288Z,4.40
2023-05-10T16:40:02.766Z,4.22
2023-05-10T16:49:45.529Z,3.67
2023-05-10T16:52:50.451Z,3.55
2023-05-10T16:55:55.487Z,4.18
2023-05-10T16:59:02.378Z,3.90
2023-05-10T17:02:08.343Z,4.07
2023-05-10T17:05:15.844Z,4.50
2023-05-10T17:08:22.908Z,3.90
2023-05-10T17:11:28.680Z,5.57
2023-05-10T17:14:34.315Z,3.55
2023-05-10T17:17:40.288Z,4.35
2023-05-10T17:20:46.348Z,3.80
2023-05-10T17:23:51.888Z,4.68
2023-05-10T17:26:59.786Z,4.57
2023-05-10T17:30:07.203Z,4.07
2023-05-10T17:33:13.875Z,3.97
2023-05-10T17:36:27.806Z,5.15
2023-05-10T17:39:33.255Z,4.40
2023-05-10T17:42:38.283Z,4.70
2023-05-10T17:45:44.510Z,5.10
2023-05-10T17:48:49.721Z,4.65
2023-05-10T17:55:19.278Z,3.67
2023-05-10T18:01:44.756Z,5.50
2023-05-10T18:11:29.798Z,5.10
2023-05-10T18:14:41.017Z,4.57
2023-05-10T18:17:48.097Z,4.93
2023-05-10T18:24:26.509Z,4.47
2023-05-10T18:27:44.352Z,4.20
2023-05-10T18:34:09.995Z,3.90
2023-05-10T18:40:40.053Z,3.88
2023-05-10T18:43:46.296Z,3.92
2023-05-10T18:46:55.743Z,4.90
2023-05-10T18:53:20.146Z,4.03
2023-05-10T18:56:27.970Z,4.35
2023-05-10T19:06:17.985Z,4.13
2023-05-10T19:09:24.460Z,3.95
2023-05-10T19:16:13.366Z,3.97
2023-05-10T19:26:00.040Z,3.55
2023-05-10T19:29:10.260Z,4.03
2023-05-10T19:32:17.438Z,3.78
2023-05-10T19:35:24.010Z,3.90
2023-05-10T19:38:37.164Z,3.53
2023-05-10T19:41:44.227Z,4.45
2023-05-10T19:51:28.127Z,4.80
2023-05-10T20:01:15.494Z,4.30
2023-05-10T20:17:44.209Z,4.32
2023-05-10T20:30:53.244Z,5.40
2023-05-10T20:34:00.380Z,5.45
2023-05-10T20:40:24.978Z,5.07
2023-05-10T20:43:30.852Z,5.40
2023-05-10T20:46:40.422Z,5.13
2023-05-10T20:49:46.130Z,4.40
2023-05-10T20:52:54.646Z,5.10
2023-05-10T20:56:00.404Z,5.20
2023-05-10T21:02:25.976Z,5.60
2023-05-10T21:05:33.389Z,6.00
2023-05-10T21:08:38.797Z,6.72
2023-05-10T21:15:12.826Z,6.85
2023-05-10T21:18:20.241Z,5.07
2023-05-10T21:31:08.840Z,4.70
2023-05-10T21:37:33.883Z,6.15
2023-05-10T21:47:20.309Z,8.00
2023-05-10T21:50:27.714Z,6.10
2023-05-10T21:56:41.280Z,7.10
2023-05-10T21:59:48.664Z,7.13
2023-05-10T22:06:04.053Z,6.63
2023-05-10T22:12:30.824Z,6.85
2023-05-10T22:15:45.080Z,7.15
2023-05-10T22:18:51.550Z,7.07
2023-05-10T22:21:56.919Z,6.70
2023-05-10T22:25:04.800Z,12.18
2023-05-10T22:28:18.440Z,10.98
2023-05-10T22:31:26.277Z,12.85
2023-05-10T22:34:31.788Z,10.57
2023-05-10T22:50:38.831Z,6.75
2023-05-10T23:00:58.730Z,9.27
2023-05-10T23:04:02.672Z,8.30
2023-05-10T23:07:11.478Z,7.43
2023-05-10T23:10:17.805Z,7.57
2023-05-10T23:13:25.298Z,7.15
2023-05-10T23:23:11.249Z,6.60
2023-05-10T23:26:18.010Z,7.00
2023-05-10T23:29:27.055Z,5.50
2023-05-10T23:35:55.347Z,6.18
2023-05-10T23:39:02.139Z,6.20
2023-05-10T23:42:08.200Z,5.90
2023-05-10T23:45:14.789Z,6.63
